createdAt,value
2023-01-29T00:02:05.943Z,0.38
2023-01-29T00:05:25.983Z,0.36
2023-01-29T00:08:30.394Z,0.27
2023-01-29T00:11:33.439Z,0.31
2023-01-29T00:14:36.124Z,0.31
2023-01-29T00:17:39.200Z,0.39
2023-01-29T00:20:43.965Z,0.45
2023-01-29T00:23:47.405Z,0.42
2023-01-29T00:26:50.476Z,0.57
2023-01-29T00:30:11.573Z,0.52
2023-01-29T00:33:14.413Z,0.54
2023-01-29T00:36:20.648Z,0.69
2023-01-29T00:39:31.447Z,0.69
2023-01-29T00:42:58.283Z,0.52
2023-01-29T00:46:01.021Z,0.38
2023-01-29T00:49:04.741Z,0.39
2023-01-29T00:52:25.651Z,0.19
2023-01-29T00:55:28.716Z,0.18
2023-01-29T00:58:34.599Z,0.06
2023-01-29T01:01:56.439Z,0.08
2023-01-29T01:04:59.300Z,0.05
2023-01-29T01:08:02.446Z,0.04
2023-01-29T01:11:06.977Z,0.10
2023-01-29T01:14:10.095Z,0.11
2023-01-29T01:17:12.872Z,0.13
2023-01-29T01:20:16.301Z,0.16
2023-01-29T01:23:20.033Z,0.19
2023-01-29T01:26:23.162Z,0.25
2023-01-29T01:29:25.904Z,0.29
2023-01-29T01:32:29.050Z,0.33
2023-01-29T01:35:32.127Z,0.42
2023-01-29T01:38:36.356Z,0.41
2023-01-29T01:41:39.086Z,0.47
2023-01-29T01:45:01.503Z,0.50
2023-01-29T01:48:04.240Z,0.50
2023-01-29T01:51:07.541Z,0.52
2023-01-29T01:54:21.638Z,0.56
2023-01-29T01:57:27.218Z,0.56
2023-01-29T02:00:29.958Z,0.60
2023-01-29T02:03:58.659Z,0.59
2023-01-29T02:07:23.248Z,0.65
2023-01-29T02:10:27.943Z,0.56
2023-01-29T02:13:31.514Z,0.52
2023-01-29T02:16:36.891Z,0.63
2023-01-29T02:19:57.700Z,0.67
2023-01-29T02:23:16.201Z,0.63
2023-01-29T02:26:44.860Z,0.70
2023-01-29T02:30:00.172Z,0.72
2023-01-29T02:33:11.983Z,0.71
2023-01-29T02:36:20.641Z,0.66
2023-01-29T02:39:42.597Z,0.67
2023-01-29T02:42:56.111Z,0.71
2023-01-29T02:46:02.037Z,0.62
2023-01-29T02:49:32.197Z,0.57
2023-01-29T02:52:51.073Z,0.55
2023-01-29T02:56:00.399Z,0.45
2023-01-29T02:59:17.507Z,0.47
2023-01-29T03:02:29.350Z,0.50
2023-01-29T03:06:02.401Z,0.51
2023-01-29T03:09:13.329Z,0.54
2023-01-29T03:12:34.222Z,0.52
2023-01-29T03:15:47.119Z,0.56
2023-01-29T03:18:58.618Z,0.54
2023-01-29T03:22:04.805Z,0.56
2023-01-29T03:25:28.708Z,0.53
2023-01-29T03:28:51.994Z,0.53
2023-01-29T03:32:09.681Z,0.59
2023-01-29T03:35:21.251Z,0.53
2023-01-29T03:38:29.745Z,0.50
2023-01-29T03:41:37.182Z,0.47
2023-01-29T03:45:22.287Z,0.47
2023-01-29T03:48:40.391Z,0.47
2023-01-29T03:51:57.847Z,0.51
2023-01-29T03:55:16.324Z,0.44
2023-01-29T03:58:46.079Z,0.49
2023-01-29T04:01:54.611Z,0.48
2023-01-29T04:05:02.314Z,0.51
2023-01-29T04:08:15.728Z,0.55
2023-01-29T04:11:21.778Z,0.49
2023-01-29T04:14:25.316Z,0.43
2023-01-29T04:17:35.019Z,0.48
2023-01-29T04:20:38.491Z,0.40
2023-01-29T04:23:41.651Z,0.40
2023-01-29T04:26:53.233Z,0.41
2023-01-29T04:30:30.927Z,0.36
2023-01-29T04:33:53.390Z,0.37
2023-01-29T04:37:27.581Z,0.30
2023-01-29T04:40:43.452Z,0.34
2023-01-29T04:43:59.584Z,0.34
2023-01-29T04:47:06.746Z,0.28
2023-01-29T04:50:18.831Z,0.20
2023-01-29T04:53:24.481Z,0.31
2023-01-29T04:56:51.947Z,0.21
2023-01-29T05:00:04.149Z,0.24
2023-01-29T05:03:09.826Z,0.20
2023-01-29T05:06:14.190Z,0.18
2023-01-29T05:09:18.140Z,0.20
2023-01-29T05:12:23.116Z,0.21
2023-01-29T05:15:43.156Z,0.16
2023-01-29T05:18:46.904Z,0.15
2023-01-29T05:21:50.640Z,0.13
2023-01-29T05:24:53.302Z,0.09
2023-01-29T05:28:14.216Z,0.06
2023-01-29T05:31:17.009Z,0.07
2023-01-29T05:34:20.155Z,0.11
2023-01-29T05:37:22.972Z,0.09
2023-01-29T05:40:26.051Z,0.09
2023-01-29T05:43:28.817Z,0.10
2023-01-29T05:46:31.857Z,0.18
2023-01-29T05:49:34.637Z,0.17
2023-01-29T05:52:37.877Z,0.19
2023-01-29T05:55:40.836Z,0.03
2023-01-29T05:58:43.906Z,0.06
2023-01-29T06:01:46.647Z,0.08
2023-01-29T06:04:52.398Z,-0.01
2023-01-29T06:07:55.431Z,-0.02
2023-01-29T06:10:58.633Z,0.05
2023-01-29T06:14:01.375Z,0.05
2023-01-29T06:17:05.139Z,0.00
2023-01-29T06:20:08.804Z,0.03
2023-01-29T06:23:11.850Z,0.01
2023-01-29T06:26:15.815Z,0.00
2023-01-29T06:29:18.939Z,0.04
2023-01-29T06:32:21.562Z,0.05
2023-01-29T06:35:26.099Z,0.03
2023-01-29T06:38:29.278Z,-0.07
2023-01-29T06:41:32.347Z,-0.13
2023-01-29T06:44:35.117Z,-0.17
2023-01-29T06:47:38.088Z,-0.21
2023-01-29T06:50:40.764Z,-0.23
2023-01-29T06:53:46.066Z,-0.28
2023-01-29T06:56:49.248Z,-0.31
2023-01-29T06:59:52.361Z,-0.29
2023-01-29T07:02:55.044Z,-0.32
2023-01-29T07:05:58.041Z,-0.32
2023-01-29T07:09:00.995Z,-0.32
2023-01-29T07:12:04.951Z,-0.31
2023-01-29T07:15:08.196Z,-0.32
2023-01-29T07:18:14.219Z,-0.35
2023-01-29T07:21:16.962Z,-0.33
2023-01-29T07:24:20.198Z,-0.33
2023-01-29T07:27:23.002Z,-0.31
2023-01-29T07:30:26.032Z,-0.32
2023-01-29T07:33:28.757Z,-0.33
2023-01-29T07:36:31.739Z,-0.34
2023-01-29T07:39:34.492Z,-0.32
2023-01-29T07:42:40.093Z,-0.37
2023-01-29T07:45:42.812Z,-0.33
2023-01-29T07:48:46.032Z,-0.37
2023-01-29T07:51:48.748Z,-0.38
2023-01-29T07:54:51.841Z,-0.39
2023-01-29T07:57:58.949Z,-0.37
2023-01-29T08:01:07.843Z,-0.36
2023-01-29T08:04:10.903Z,-0.42
2023-01-29T08:07:14.135Z,-0.43
2023-01-29T08:10:17.611Z,-0.46
2023-01-29T08:13:20.665Z,-0.46
2023-01-29T08:16:23.921Z,-0.44
2023-01-29T08:19:26.837Z,-0.44
2023-01-29T08:22:29.974Z,-0.43
2023-01-29T08:25:33.750Z,-0.39
2023-01-29T08:28:38.896Z,-0.42
2023-01-29T08:31:41.647Z,-0.39
2023-01-29T08:34:44.675Z,-0.39
2023-01-29T08:37:59.630Z,-0.34
2023-01-29T08:41:02.804Z,-0.37
2023-01-29T08:44:05.795Z,-0.36
2023-01-29T08:47:08.820Z,-0.35
2023-01-29T08:50:12.000Z,-0.35
2023-01-29T08:53:15.171Z,-0.35
2023-01-29T08:56:17.993Z,-0.33
2023-01-29T08:59:23.008Z,-0.34
2023-01-29T09:02:26.058Z,-0.32
2023-01-29T09:05:29.432Z,-0.23
2023-01-29T09:08:32.214Z,-0.23
2023-01-29T09:11:35.357Z,-0.21
2023-01-29T09:14:38.281Z,-0.19
2023-01-29T09:17:41.483Z,-0.17
2023-01-29T09:20:44.274Z,-0.23
2023-01-29T09:23:47.424Z,-0.22
2023-01-29T09:26:50.254Z,-0.20
2023-01-29T09:29:53.325Z,-0.07
2023-01-29T09:32:56.073Z,0.08
2023-01-29T09:35:59.243Z,0.23
2023-01-29T09:39:02.136Z,1.47
2023-01-29T09:42:27.162Z,2.53
2023-01-29T09:45:31.874Z,3.67
2023-01-29T09:48:36.800Z,4.73
2023-01-29T09:51:49.317Z,5.10
2023-01-29T09:55:06.688Z,5.04
2023-01-29T09:58:18.379Z,5.77
2023-01-29T10:01:33.408Z,5.11
2023-01-29T10:05:30.889Z,3.86
2023-01-29T10:08:57.882Z,2.81
2023-01-29T10:12:37.021Z,2.34
2023-01-29T10:15:51.879Z,2.25
2023-01-29T10:19:26.127Z,1.90
2023-01-29T10:22:37.958Z,1.73
2023-01-29T10:25:43.412Z,1.66
2023-01-29T10:28:50.889Z,1.51
2023-01-29T10:32:05.195Z,1.15
2023-01-29T10:35:29.962Z,1.09
2023-01-29T10:38:46.317Z,0.91
2023-01-29T10:42:05.939Z,1.06
2023-01-29T10:45:35.279Z,0.97
2023-01-29T10:49:15.589Z,0.88
2023-01-29T10:52:51.921Z,1.00
2023-01-29T10:56:02.481Z,0.97
2023-01-29T10:59:42.856Z,1.06
2023-01-29T11:02:49.052Z,1.18
2023-01-29T11:05:59.722Z,1.43
2023-01-29T11:09:11.230Z,1.51
2023-01-29T11:12:18.599Z,1.77
2023-01-29T11:15:32.708Z,1.82
2023-01-29T11:18:53.918Z,1.81
2023-01-29T11:22:00.328Z,2.79
2023-01-29T11:25:21.200Z,3.04
2023-01-29T11:28:38.750Z,3.76
2023-01-29T11:31:41.988Z,4.17
2023-01-29T11:35:09.905Z,4.55
2023-01-29T11:38:21.476Z,3.88
2023-01-29T11:41:25.625Z,3.02
2023-01-29T11:44:41.560Z,3.34
2023-01-29T11:47:53.023Z,4.23
2023-01-29T11:51:00.960Z,4.62
2023-01-29T11:54:05.716Z,4.22
2023-01-29T11:57:28.108Z,4.72
2023-01-29T12:00:35.478Z,5.51
2023-01-29T12:03:44.978Z,5.80
2023-01-29T12:06:52.510Z,5.40
2023-01-29T12:09:58.914Z,5.50
2023-01-29T12:13:25.886Z,4.65
2023-01-29T12:16:41.027Z,3.87
2023-01-29T12:19:54.342Z,3.24
2023-01-29T12:23:12.210Z,2.94
2023-01-29T12:26:25.633Z,2.59
2023-01-29T12:29:33.910Z,2.04
2023-01-29T12:32:47.028Z,1.97
2023-01-29T12:36:31.735Z,2.13
2023-01-29T12:39:34.753Z,2.09
2023-01-29T12:42:42.212Z,1.67
2023-01-29T12:45:52.636Z,1.23
2023-01-29T12:48:59.837Z,1.29
2023-01-29T12:52:11.743Z,1.04
2023-01-29T12:55:39.953Z,1.68
2023-01-29T12:58:47.839Z,2.99
2023-01-29T13:01:56.107Z,3.72
2023-01-29T13:05:24.704Z,4.35
2023-01-29T13:08:37.340Z,5.12
2023-01-29T13:11:53.871Z,5.38
2023-01-29T13:14:59.268Z,4.46
2023-01-29T13:18:29.725Z,3.45
2023-01-29T13:21:41.050Z,2.70
2023-01-29T13:24:55.473Z,2.95
2023-01-29T13:28:17.004Z,4.20
2023-01-29T13:31:38.086Z,5.23
2023-01-29T13:34:47.494Z,5.82
2023-01-29T13:37:55.313Z,6.57
2023-01-29T13:41:05.681Z,6.24
2023-01-29T13:44:21.351Z,6.93
2023-01-29T13:47:32.354Z,6.44
2023-01-29T13:50:42.088Z,5.78
2023-01-29T13:53:57.410Z,5.30
2023-01-29T13:57:01.755Z,3.46
2023-01-29T14:00:06.632Z,2.16
2023-01-29T14:03:11.972Z,1.53
2023-01-29T14:06:40.596Z,1.31
2023-01-29T14:09:43.963Z,1.26
2023-01-29T14:12:48.445Z,1.38
2023-01-29T14:15:57.614Z,1.11
2023-01-29T14:19:02.792Z,0.93
2023-01-29T14:22:06.408Z,0.82
2023-01-29T14:25:20.065Z,0.73
2023-01-29T14:28:27.295Z,0.64
2023-01-29T14:31:47.854Z,0.62
2023-01-29T14:34:59.561Z,0.56
2023-01-29T14:38:07.516Z,0.53
2023-01-29T14:41:30.277Z,0.53
2023-01-29T14:44:45.999Z,0.39
2023-01-29T14:47:49.061Z,0.20
2023-01-29T14:50:57.019Z,0.04
2023-01-29T14:54:16.186Z,-0.08
2023-01-29T14:57:20.596Z,-0.15
2023-01-29T15:00:31.797Z,-0.31
2023-01-29T15:03:50.819Z,-0.42
2023-01-29T15:07:15.921Z,-0.60
2023-01-29T15:10:27.975Z,-0.68
2023-01-29T15:13:39.815Z,-0.74
2023-01-29T15:17:18.916Z,-0.80
2023-01-29T15:20:30.022Z,-0.84
2023-01-29T15:23:35.220Z,-0.91
2023-01-29T15:26:38.824Z,-0.95
2023-01-29T15:29:44.400Z,-1.00
2023-01-29T15:32:49.925Z,-1.03
2023-01-29T15:36:09.217Z,-1.09
2023-01-29T15:39:12.362Z,-1.13
2023-01-29T15:42:24.092Z,-1.19
2023-01-29T15:45:34.296Z,-1.25
2023-01-29T15:48:41.854Z,-1.25
2023-01-29T15:51:48.127Z,-1.26
2023-01-29T15:54:51.880Z,-1.35
2023-01-29T15:57:58.144Z,-1.43
2023-01-29T16:01:02.582Z,-1.44
2023-01-29T16:04:06.543Z,-1.38
2023-01-29T16:07:13.596Z,-1.36
2023-01-29T16:10:24.898Z,-1.28
2023-01-29T16:13:36.296Z,-1.29
2023-01-29T16:16:40.861Z,-1.24
2023-01-29T16:19:44.174Z,-1.28
2023-01-29T16:22:48.369Z,-1.34
2023-01-29T16:25:54.336Z,-1.33
2023-01-29T16:29:09.429Z,-1.42
2023-01-29T16:32:17.558Z,-1.46
2023-01-29T16:35:22.326Z,-1.53
2023-01-29T16:38:36.156Z,-1.58
2023-01-29T16:41:41.722Z,-1.63
2023-01-29T16:45:08.085Z,-1.69
2023-01-29T16:48:33.076Z,-1.70
2023-01-29T16:51:49.626Z,-1.74
2023-01-29T16:55:22.216Z,-1.77
2023-01-29T16:58:28.469Z,-1.75
2023-01-29T17:01:35.213Z,-1.81
2023-01-29T17:04:42.241Z,-1.87
2023-01-29T17:07:48.781Z,-1.74
2023-01-29T17:10:54.041Z,-1.77
2023-01-29T17:13:58.863Z,-1.84
2023-01-29T17:17:07.602Z,-1.85
2023-01-29T17:20:17.304Z,-1.87
2023-01-29T17:23:21.867Z,-1.79
2023-01-29T17:26:31.979Z,-1.83
2023-01-29T17:29:36.256Z,-1.84
2023-01-29T17:32:45.212Z,-1.83
2023-01-29T17:35:51.681Z,-1.87
2023-01-29T17:38:56.678Z,-1.93
2023-01-29T17:42:02.002Z,-1.97
2023-01-29T17:45:07.084Z,-1.97
2023-01-29T17:48:20.853Z,-1.96
2023-01-29T17:51:25.070Z,-2.04
2023-01-29T17:54:29.411Z,-2.06
2023-01-29T17:57:34.268Z,-2.05
2023-01-29T18:00:38.020Z,-2.01
2023-01-29T18:03:42.264Z,-1.89
2023-01-29T18:06:48.645Z,-1.96
2023-01-29T18:09:52.288Z,-2.02
2023-01-29T18:12:57.301Z,-2.01
2023-01-29T18:16:02.497Z,-2.05
2023-01-29T18:19:33.059Z,-2.11
2023-01-29T18:22:37.166Z,-2.09
2023-01-29T18:25:40.714Z,-2.14
2023-01-29T18:28:44.997Z,-2.19
2023-01-29T18:31:50.283Z,-2.26
2023-01-29T18:34:54.880Z,-2.33
2023-01-29T18:37:58.834Z,-2.35
2023-01-29T18:41:11.278Z,-2.35
2023-01-29T18:44:15.098Z,-2.41
2023-01-29T18:47:18.622Z,-2.46
2023-01-29T18:50:24.083Z,-2.47
2023-01-29T18:53:29.111Z,-2.51
2023-01-29T18:56:34.760Z,-2.57
2023-01-29T18:59:39.060Z,-2.61
2023-01-29T19:02:43.658Z,-2.65
2023-01-29T19:05:49.773Z,-2.65
2023-01-29T19:09:02.650Z,-2.63
2023-01-29T19:12:09.021Z,-2.70
2023-01-29T19:15:13.439Z,-2.72
2023-01-29T19:18:17.952Z,-2.72
2023-01-29T19:21:22.768Z,-2.74
2023-01-29T19:24:28.372Z,-2.73
2023-01-29T19:27:32.887Z,-2.76
2023-01-29T19:30:37.809Z,-2.73
2023-01-29T19:33:43.959Z,-2.72
2023-01-29T19:36:48.390Z,-2.68
2023-01-29T19:39:52.536Z,-2.67
2023-01-29T19:43:00.418Z,-2.64
2023-01-29T19:46:04.268Z,-2.70
2023-01-29T19:49:10.958Z,-2.70
2023-01-29T19:52:51.245Z,-2.72
2023-01-29T19:56:08.718Z,-2.72
2023-01-29T19:59:15.548Z,-2.78
2023-01-29T20:02:20.162Z,-2.80
2023-01-29T20:05:24.386Z,-2.75
2023-01-29T20:08:27.696Z,-2.76
2023-01-29T20:11:32.582Z,-2.66
2023-01-29T20:14:36.113Z,-2.66
2023-01-29T20:17:41.984Z,-2.51
2023-01-29T20:20:50.071Z,-2.24
2023-01-29T20:23:54.981Z,-2.18
2023-01-29T20:26:59.627Z,-2.10
2023-01-29T20:30:03.779Z,-2.06
2023-01-29T20:33:08.470Z,-2.06
2023-01-29T20:36:15.385Z,-1.99
2023-01-29T20:39:20.323Z,-2.01
2023-01-29T20:42:27.405Z,-2.00
2023-01-29T20:45:33.297Z,-2.03
2023-01-29T20:48:39.836Z,-2.04
2023-01-29T20:51:45.257Z,-2.21
2023-01-29T20:54:49.600Z,-2.17
2023-01-29T20:58:06.499Z,-2.23
2023-01-29T21:01:13.368Z,-2.43
2023-01-29T21:04:17.547Z,-2.50
2023-01-29T21:07:23.534Z,-2.36
2023-01-29T21:10:27.580Z,-2.27
2023-01-29T21:13:32.616Z,-2.39
2023-01-29T21:16:36.624Z,-2.47
2023-01-29T21:19:43.762Z,-2.54
2023-01-29T21:22:49.449Z,-2.83
2023-01-29T21:25:53.419Z,-2.87
2023-01-29T21:28:56.961Z,-3.10
2023-01-29T21:32:00.861Z,-3.01
2023-01-29T21:35:04.757Z,-3.11
2023-01-29T21:38:08.095Z,-3.06
2023-01-29T21:41:11.308Z,-3.06
2023-01-29T21:44:16.205Z,-3.10
2023-01-29T21:47:19.409Z,-3.10
2023-01-29T21:50:23.314Z,-3.01
2023-01-29T21:53:27.142Z,-3.06
2023-01-29T21:56:30.268Z,-2.79
2023-01-29T21:59:33.117Z,-2.98
2023-01-29T22:02:36.227Z,-2.79
2023-01-29T22:05:39.708Z,-2.66
2023-01-29T22:08:42.466Z,-2.70
2023-01-29T22:11:45.690Z,-2.67
2023-01-29T22:14:48.511Z,-2.69
2023-01-29T22:17:51.587Z,-2.37
2023-01-29T22:20:55.488Z,-2.29
2023-01-29T22:23:58.496Z,-2.36
2023-01-29T22:27:01.251Z,-2.30
2023-01-29T22:30:05.768Z,-2.28
2023-01-29T22:33:10.533Z,-2.27
2023-01-29T22:36:13.631Z,-2.23
2023-01-29T22:39:16.336Z,-2.31
2023-01-29T22:42:20.743Z,-2.25
2023-01-29T22:45:23.492Z,-2.23
2023-01-29T22:48:27.110Z,-2.23
2023-01-29T22:51:29.849Z,-2.28
2023-01-29T22:54:32.823Z,-2.24
2023-01-29T22:57:36.021Z,-2.28
2023-01-29T23:00:39.038Z,-2.29
2023-01-29T23:03:41.791Z,-2.25
2023-01-29T23:06:44.865Z,-2.43
2023-01-29T23:09:47.539Z,-2.48
2023-01-29T23:12:50.654Z,-2.52
2023-01-29T23:15:59.919Z,-2.69
2023-01-29T23:19:03.121Z,-2.99
2023-01-29T23:22:05.863Z,-3.07
2023-01-29T23:25:09.547Z,-3.09
2023-01-29T23:28:12.303Z,-3.04
2023-01-29T23:31:15.947Z,-3.12
2023-01-29T23:34:18.880Z,-3.06
2023-01-29T23:37:21.971Z,-3.14
2023-01-29T23:40:24.672Z,-3.38
2023-01-29T23:43:28.730Z,-3.33
2023-01-29T23:46:32.068Z,-3.34
2023-01-29T23:49:35.500Z,-3.38
2023-01-29T23:52:39.054Z,-3.48
2023-01-29T23:55:42.531Z,-3.64
2023-01-29T23:58:45.320Z,-3.55
